Time;durP1;ratioP1;P1;durP2;ratioP2;P2;SDS_P1;SDS_P2;PMS_P1;PMS_P2;Temp;Humidity;BMP_temperature;BMP_pressure;BME280_temperature;BME280_humidity;BME280_pressure;Samples;Min_cycle;Max_cycle;Signal;HPM_P1;HPM_P2
2023/01/05 00:01:33;;;;;;;0.40;0.37;;;12.50;58.90;;;;;;20769;6823;117340;-73
2023/01/05 00:03:58;;;;;;;0.30;0.30;;;12.40;58.00;;;;;;20532;6823;300894;-74
2023/01/05 00:06:24;;;;;;;0.55;0.30;;;12.50;58.00;;;;;;20578;6823;278161;-74
2023/01/05 00:08:50;;;;;;;0.40;0.40;;;13.00;56.90;;;;;;20573;6823;308658;-73
2023/01/05 00:22:31;;;;;;;0.43;0.30;;;12.30;57.40;;;;;;20771;6823;118366;-74
2023/01/05 00:25:03;;;;;;;0.27;0.27;;;12.00;57.80;;;;;;20786;6823;116984;-74
2023/01/05 00:27:29;;;;;;;0.30;0.30;;;11.90;58.20;;;;;;20554;6823;307200;-74
2023/01/05 00:29:54;;;;;;;0.33;0.30;;;12.00;58.50;;;;;;20764;6821;117843;-74
2023/01/05 00:32:20;;;;;;;0.20;0.20;;;12.10;58.10;;;;;;20560;6822;308260;-74
2023/01/05 00:34:45;;;;;;;0.20;0.20;;;12.20;58.20;;;;;;20581;6822;277756;-74
2023/01/05 00:37:11;;;;;;;0.40;0.20;;;12.60;57.70;;;;;;20576;6822;319869;-74
2023/01/05 00:39:37;;;;;;;0.47;0.20;;;12.80;57.10;;;;;;20781;6822;116953;-74
2023/01/05 00:42:02;;;;;;;0.20;0.20;;;12.70;56.90;;;;;;20751;6822;118163;-74
2023/01/05 00:44:28;;;;;;;0.20;0.20;;;12.50;57.30;;;;;;20562;6822;278125;-74
2023/01/05 00:46:53;;;;;;;0.20;0.20;;;12.50;57.60;;;;;;20572;6822;278159;-74
2023/01/05 00:49:19;;;;;;;0.40;0.30;;;12.80;57.40;;;;;;20565;6822;277220;-75
2023/01/05 00:51:44;;;;;;;0.20;0.10;;;13.00;56.90;;;;;;20749;6823;119867;-74
2023/01/05 00:54:10;;;;;;;0.90;0.20;;;12.90;56.70;;;;;;20777;6823;117473;-74
2023/01/05 00:56:35;;;;;;;0.20;0.20;;;12.60;56.90;;;;;;20776;6823;119051;-74
2023/01/05 00:59:01;;;;;;;0.20;0.20;;;12.30;57.40;;;;;;20572;6823;341062;-74
2023/01/05 01:01:27;;;;;;;0.60;0.20;;;12.40;58.50;;;;;;20766;6823;117435;-75
2023/01/05 01:03:52;;;;;;;0.40;0.20;;;12.40;58.10;;;;;;20552;6823;336618;-74
2023/01/05 01:06:18;;;;;;;0.20;0.20;;;12.50;58.50;;;;;;20780;6823;117277;-74
2023/01/05 01:08:43;;;;;;;0.30;0.20;;;12.50;58.20;;;;;;20764;6823;119087;-75
2023/01/05 01:11:09;;;;;;;0.90;0.30;;;12.30;58.30;;;;;;20563;6823;311207;-74
2023/01/05 01:13:37;;;;;;;0.70;0.20;;;12.40;59.00;;;;;;20562;6823;307333;-74
2023/01/05 01:16:04;;;;;;;0.20;0.20;;;12.70;58.60;;;;;;20540;6823;279433;-74
2023/01/05 01:18:30;;;;;;;0.20;0.20;;;12.90;58.00;;;;;;20561;6823;277348;-74
2023/01/05 01:20:56;;;;;;;0.50;0.30;;;13.10;57.50;;;;;;20551;6823;329607;-75
2023/01/05 01:23:21;;;;;;;0.43;0.20;;;13.30;57.20;;;;;;20567;6823;277231;-74
2023/01/05 01:25:47;;;;;;;0.20;0.20;;;13.40;57.00;;;;;;20543;6823;308074;-74
2023/01/05 01:28:12;;;;;;;0.27;0.27;;;13.40;56.70;;;;;;20567;6823;306571;-74
2023/01/05 01:30:38;;;;;;;0.53;0.20;;;13.50;56.50;;;;;;20552;6823;307067;-74
2023/01/05 01:33:03;;;;;;;0.30;0.30;;;13.60;56.40;;;;;;20769;6823;120606;-74
2023/01/05 01:35:30;;;;;;;0.40;0.30;;;13.30;57.10;;;;;;20571;6823;278091;-74
2023/01/05 01:37:55;;;;;;;0.10;0.10;;;13.20;56.90;;;;;;20540;6823;333900;-74
2023/01/05 01:40:21;;;;;;;0.37;0.20;;;13.30;56.90;;;;;;20566;6823;331648;-74
2023/01/05 01:42:46;;;;;;;0.20;0.20;;;13.40;56.70;;;;;;20565;6820;277581;-74
2023/01/05 01:45:22;;;;;;;0.80;0.40;;;13.50;57.10;;;;;;20783;6822;119277;-74
2023/01/05 01:47:55;;;;;;;0.28;0.28;;;13.30;56.60;;;;;;20552;6822;276749;-74
2023/01/05 01:50:30;;;;;;;0.30;0.30;;;13.20;57.10;;;;;;20767;6822;118385;-74
2023/01/05 01:52:58;;;;;;;0.20;0.20;;;13.10;57.00;;;;;;20555;6822;277620;-73
2023/01/05 01:55:24;;;;;;;0.10;0.10;;;13.00;57.60;;;;;;20769;6822;117202;-74
2023/01/05 01:57:49;;;;;;;0.20;0.20;;;12.90;57.50;;;;;;20731;6822;123882;-74
2023/01/05 02:00:15;;;;;;;0.20;0.20;;;12.60;57.80;;;;;;20571;6822;277817;-74
2023/01/05 02:02:41;;;;;;;0.33;0.20;;;12.60;58.60;;;;;;20523;6823;307220;-73
2023/01/05 02:05:06;;;;;;;1.03;0.20;;;12.90;58.40;;;;;;20777;6823;120813;-73
2023/01/05 02:07:32;;;;;;;0.20;0.20;;;12.80;58.00;;;;;;20551;6823;306387;-73
2023/01/05 02:09:58;;;;;;;0.20;0.20;;;12.90;58.40;;;;;;20744;6823;121446;-73
2023/01/05 02:12:56;;;;;;;0.20;0.20;;;12.80;58.20;;;;;;20553;6823;278316;-73
2023/01/05 02:15:29;;;;;;;0.10;0.10;;;12.80;58.50;;;;;;20769;6823;118269;-74
2023/01/05 02:18:08;;;;;;;0.10;0.10;;;12.70;58.90;;;;;;20527;6823;281985;-73
2023/01/05 02:20:47;;;;;;;0.27;0.10;;;12.70;58.90;;;;;;20514;6823;306659;-73
2023/01/05 02:23:33;;;;;;;0.20;0.20;;;13.00;58.50;;;;;;20735;6823;117088;-74
2023/01/05 02:26:31;;;;;;;0.20;0.20;;;12.80;58.00;;;;;;20757;6823;118421;-74
2023/01/05 02:29:27;;;;;;;0.00;0.00;;;12.50;58.40;;;;;;20739;6823;117481;-74
2023/01/05 02:31:52;;;;;;;0.13;0.13;;;12.20;58.70;;;;;;20741;6823;117504;-74
2023/01/05 02:34:31;;;;;;;0.10;0.10;;;12.00;59.20;;;;;;20768;6823;117398;-74
2023/01/05 02:37:16;;;;;;;0.37;0.10;;;11.90;59.50;;;;;;20534;6823;311601;-74
2023/01/05 02:39:51;;;;;;;0.23;0.23;;;12.10;60.60;;;;;;20722;6823;118235;-73
2023/01/05 02:42:17;;;;;;;0.20;0.20;;;12.20;60.10;;;;;;20567;6823;278068;-74
2023/01/05 02:44:43;;;;;;;0.10;0.10;;;12.70;60.00;;;;;;20535;6823;306805;-76
2023/01/05 02:47:29;;;;;;;0.20;0.20;;;12.70;60.00;;;;;;20780;6823;117172;-74
2023/01/05 02:49:54;;;;;;;0.10;0.10;;;12.70;59.40;;;;;;20754;6823;120237;-74
2023/01/05 02:52:20;;;;;;;0.45;0.20;;;12.50;59.50;;;;;;20745;6823;118781;-74
2023/01/05 02:54:58;;;;;;;0.73;0.23;;;12.30;59.80;;;;;;20768;6821;117857;-74
2023/01/05 02:57:45;;;;;;;0.00;0.00;;;12.00;60.10;;;;;;20774;6822;117047;-73
2023/01/05 02:59:52;;;;;;;0.10;0.10;;;12.00;60.10;;;;;;20681;6822;118718;-74
2023/01/05 03:02:17;;;;;;;0.10;0.10;;;11.90;60.60;;;;;;20693;6822;119225;-73
2023/01/05 03:04:55;;;;;;;0.20;0.20;;;11.90;60.50;;;;;;20754;6822;118819;-74
2023/01/05 03:07:21;;;;;;;0.23;0.10;;;11.80;60.60;;;;;;20757;6822;117662;-73
2023/01/05 03:09:47;;;;;;;0.20;0.20;;;11.80;60.70;;;;;;20743;6822;118123;-73
2023/01/05 03:15:05;;;;;;;0.10;0.10;;;12.00;61.60;;;;;;20556;6823;307679;-73
2023/01/05 03:17:41;;;;;;;0.20;0.20;;;12.50;60.90;;;;;;20565;6823;310563;-73
2023/01/05 03:20:06;;;;;;;0.93;0.10;;;12.80;59.80;;;;;;20731;6823;117525;-73
2023/01/05 03:36:32;;;;;;;0.10;0.10;;;13.50;57.80;;;;;;20558;6823;309248;-74
2023/01/05 03:38:57;;;;;;;0.10;0.10;;;13.60;57.20;;;;;;20551;6823;280249;-74
2023/01/05 03:41:23;;;;;;;0.10;0.10;;;13.70;57.00;;;;;;20751;6823;118230;-74
2023/01/05 03:43:48;;;;;;;0.20;0.20;;;13.50;57.00;;;;;;20540;6823;313215;-74
2023/01/05 03:46:14;;;;;;;0.10;0.10;;;13.40;57.50;;;;;;20754;6823;118740;-74
2023/01/05 03:48:40;;;;;;;0.10;0.10;;;13.20;57.70;;;;;;20564;6823;306747;-75
2023/01/05 03:51:06;;;;;;;0.32;0.10;;;13.20;57.70;;;;;;20543;6823;317217;-74
2023/01/05 03:53:31;;;;;;;0.20;0.10;;;13.40;57.50;;;;;;20558;6823;330852;-75
2023/01/05 03:55:57;;;;;;;0.10;0.10;;;13.50;57.10;;;;;;20752;6823;117610;-75
2023/01/05 03:58:23;;;;;;;0.10;0.10;;;13.40;57.70;;;;;;20564;6823;307162;-74
2023/01/05 04:00:49;;;;;;;0.10;0.10;;;13.30;57.30;;;;;;20553;6823;281454;-74
2023/01/05 04:03:15;;;;;;;1.20;0.17;;;13.60;56.80;;;;;;20564;6823;277252;-76
2023/01/05 04:05:41;;;;;;;0.20;0.20;;;13.60;56.80;;;;;;20745;6821;118235;-74
2023/01/05 04:08:06;;;;;;;0.30;0.30;;;13.50;56.70;;;;;;20543;6822;307984;-74
2023/01/05 04:10:32;;;;;;;0.20;0.10;;;13.40;57.00;;;;;;20763;6822;119096;-74
2023/01/05 04:12:57;;;;;;;0.10;0.10;;;13.30;56.80;;;;;;20747;6822;117203;-74
2023/01/05 04:15:23;;;;;;;0.20;0.20;;;13.00;57.30;;;;;;20553;6822;311258;-74
2023/01/05 04:17:49;;;;;;;0.20;0.20;;;13.20;57.60;;;;;;20539;6822;301573;-74
2023/01/05 04:20:15;;;;;;;0.10;0.10;;;13.20;57.60;;;;;;20556;6822;305231;-74
2023/01/05 04:22:40;;;;;;;0.20;0.13;;;13.50;57.20;;;;;;20550;6822;306692;-74
2023/01/05 04:25:07;;;;;;;0.20;0.20;;;13.60;56.70;;;;;;20572;6822;278008;-74
2023/01/05 04:27:32;;;;;;;0.13;0.13;;;13.80;57.10;;;;;;20557;6823;311114;-77
2023/01/05 04:29:58;;;;;;;0.20;0.10;;;13.90;56.10;;;;;;20550;6823;276750;-74
2023/01/05 04:32:23;;;;;;;0.10;0.10;;;13.90;55.60;;;;;;20773;6823;118208;-74
2023/01/05 04:34:49;;;;;;;0.40;0.20;;;13.70;55.50;;;;;;20785;6823;122240;-74
2023/01/05 04:37:15;;;;;;;0.20;0.20;;;13.30;56.00;;;;;;20554;6823;341196;-75
2023/01/05 04:39:41;;;;;;;0.30;0.17;;;13.40;56.60;;;;;;20561;6823;300626;-74
2023/01/05 04:42:06;;;;;;;0.10;0.10;;;13.50;56.60;;;;;;20742;6823;117316;-74
2023/01/05 04:44:32;;;;;;;0.10;0.10;;;13.30;56.40;;;;;;20771;6823;117995;-75
2023/01/05 04:46:57;;;;;;;0.10;0.10;;;13.10;56.80;;;;;;20779;6823;118886;-74
2023/01/05 04:49:23;;;;;;;0.47;0.10;;;12.80;56.90;;;;;;20770;6823;117117;-74
2023/01/05 04:51:49;;;;;;;0.10;0.10;;;12.60;57.20;;;;;;20739;6823;118887;-75
2023/01/05 04:54:14;;;;;;;0.10;0.10;;;12.40;57.50;;;;;;20768;6823;117756;-80
2023/01/05 04:56:40;;;;;;;0.20;0.20;;;12.30;57.80;;;;;;20560;6823;303723;-76
2023/01/05 04:59:05;;;;;;;0.10;0.10;;;12.50;58.70;;;;;;20556;6823;291521;-74
2023/01/05 05:01:31;;;;;;;0.20;0.10;;;12.80;58.40;;;;;;20555;6823;307139;-78
2023/01/05 05:03:56;;;;;;;0.10;0.10;;;13.20;57.90;;;;;;20542;6823;301452;-74
2023/01/05 05:06:22;;;;;;;0.10;0.10;;;13.40;57.20;;;;;;20560;6823;277668;-74
2023/01/05 05:08:47;;;;;;;0.17;0.17;;;13.60;56.70;;;;;;20566;6823;295904;-77
2023/01/05 05:11:14;;;;;;;0.60;0.40;;;13.80;56.00;;;;;;20549;6823;307651;-74
2023/01/05 05:13:39;;;;;;;0.20;0.20;;;13.80;55.90;;;;;;20763;6823;117542;-76
2023/01/05 05:16:06;;;;;;;0.90;0.28;;;13.60;56.00;;;;;;20559;6823;281720;-75
2023/01/05 05:18:32;;;;;;;0.10;0.10;;;13.60;56.50;;;;;;20783;6821;117078;-78
2023/01/05 05:20:57;;;;;;;0.10;0.10;;;13.40;56.90;;;;;;20563;6822;278461;-74
2023/01/05 05:23:23;;;;;;;0.10;0.10;;;13.40;57.50;;;;;;20779;6822;119244;-77
2023/01/05 05:25:48;;;;;;;0.70;0.10;;;13.30;56.70;;;;;;20545;6822;309764;-78
2023/01/05 05:28:14;;;;;;;0.10;0.10;;;13.30;57.00;;;;;;20767;6822;118239;-78
2023/01/05 05:30:40;;;;;;;0.20;0.10;;;13.20;56.90;;;;;;20549;6822;311071;-74
2023/01/05 05:33:05;;;;;;;0.63;0.10;;;13.30;57.30;;;;;;20786;6822;117064;-75
2023/01/05 05:35:31;;;;;;;0.10;0.10;;;13.10;57.10;;;;;;20766;6822;121997;-78
2023/01/05 05:37:56;;;;;;;0.30;0.10;;;12.90;57.40;;;;;;20759;6823;118123;-75
2023/01/05 05:40:22;;;;;;;0.30;0.20;;;12.70;57.70;;;;;;20556;6823;277653;-74
2023/01/05 05:42:47;;;;;;;0.13;0.10;;;12.80;58.80;;;;;;20755;6823;117630;-76
2023/01/05 05:45:13;;;;;;;0.20;0.20;;;12.80;58.20;;;;;;20560;6823;307595;-74
2023/01/05 05:47:39;;;;;;;0.10;0.10;;;13.00;58.70;;;;;;20555;6823;284205;-74
2023/01/05 05:50:04;;;;;;;0.20;0.20;;;13.20;58.20;;;;;;20544;6823;307222;-75
2023/01/05 05:52:30;;;;;;;0.00;0.00;;;13.40;57.50;;;;;;20753;6823;121753;-78
2023/01/05 05:54:56;;;;;;;0.13;0.13;;;13.30;57.10;;;;;;20778;6823;117853;-74
2023/01/05 05:57:21;;;;;;;0.10;0.10;;;13.00;57.40;;;;;;20556;6823;305272;-74
2023/01/05 05:59:47;;;;;;;0.10;0.10;;;13.10;58.10;;;;;;20508;6823;281706;-74
2023/01/05 06:02:13;;;;;;;0.10;0.10;;;13.20;57.50;;;;;;20754;6823;117275;-74
2023/01/05 06:04:39;;;;;;;0.53;0.10;;;13.20;57.50;;;;;;20763;6823;118284;-74
2023/01/05 06:07:04;;;;;;;0.13;0.13;;;12.90;57.70;;;;;;20769;6823;117461;-74
2023/01/05 06:09:30;;;;;;;0.40;0.10;;;12.70;58.20;;;;;;20542;6823;335788;-75
2023/01/05 06:11:55;;;;;;;0.97;0.20;;;12.80;58.90;;;;;;20733;6823;118556;-75
2023/01/05 06:14:21;;;;;;;0.20;0.20;;;12.80;58.60;;;;;;20550;6823;341296;-74
2023/01/05 06:16:47;;;;;;;0.50;0.50;;;12.90;58.80;;;;;;20749;6823;124520;-74
2023/01/05 06:19:13;;;;;;;0.10;0.10;;;12.90;58.60;;;;;;20565;6823;306709;-74
2023/01/05 06:21:39;;;;;;;0.20;0.20;;;12.90;59.20;;;;;;20755;6823;117822;-75
2023/01/05 06:24:05;;;;;;;0.10;0.10;;;12.90;59.10;;;;;;20749;6823;118115;-73
2023/01/05 06:26:30;;;;;;;0.10;0.10;;;12.70;59.40;;;;;;20769;6823;117442;-73
2023/01/05 06:28:56;;;;;;;0.10;0.10;;;12.50;59.80;;;;;;20763;6821;118929;-74
2023/01/05 06:31:21;;;;;;;0.30;0.20;;;12.30;60.10;;;;;;20545;6822;307268;-74
2023/01/05 06:33:47;;;;;;;0.47;0.30;;;12.50;61.70;;;;;;20763;6822;121395;-73
2023/01/05 06:36:12;;;;;;;0.40;0.20;;;12.50;61.20;;;;;;20554;6822;277332;-74
2023/01/05 06:38:38;;;;;;;0.20;0.20;;;12.70;62.10;;;;;;20565;6822;309556;-74
2023/01/05 06:41:03;;;;;;;0.20;0.20;;;12.90;61.80;;;;;;20563;6822;336688;-74
2023/01/05 06:43:29;;;;;;;0.13;0.10;;;13.10;61.40;;;;;;20556;6822;297510;-73
2023/01/05 06:45:55;;;;;;;0.40;0.20;;;13.30;61.30;;;;;;20737;6822;122185;-74
2023/01/05 06:48:21;;;;;;;0.30;0.30;;;13.00;61.90;;;;;;20553;6823;340303;-73
2023/01/05 06:50:47;;;;;;;0.40;0.20;;;13.00;61.90;;;;;;20544;6823;326580;-74
2023/01/05 06:53:14;;;;;;;0.57;0.20;;;13.20;61.80;;;;;;20569;6823;277319;-76
2023/01/05 06:55:39;;;;;;;0.20;0.20;;;13.30;61.60;;;;;;20561;6823;307718;-74
2023/01/05 06:58:05;;;;;;;0.10;0.10;;;13.40;61.50;;;;;;20736;6823;118317;-74
2023/01/05 07:00:31;;;;;;;0.20;0.20;;;13.20;61.40;;;;;;20767;6823;117048;-74
2023/01/05 07:02:56;;;;;;;0.20;0.20;;;12.80;61.90;;;;;;20537;6823;277268;-72
2023/01/05 07:05:23;;;;;;;1.00;0.30;;;12.80;63.00;;;;;;20562;6823;277200;-73
2023/01/05 07:07:48;;;;;;;0.80;0.80;;;12.90;62.80;;;;;;20747;6823;117721;-73
2023/01/05 07:10:14;;;;;;;1.15;1.15;;;12.80;62.70;;;;;;20556;6823;335465;-73
2023/01/05 07:12:39;;;;;;;1.80;1.70;;;12.90;63.40;;;;;;20554;6823;337066;-73
2023/01/05 07:15:05;;;;;;;0.90;0.60;;;13.00;63.20;;;;;;20564;6823;282260;-73
2023/01/05 07:17:31;;;;;;;0.50;0.50;;;13.20;62.80;;;;;;20557;6823;305954;-81
2023/01/05 07:19:56;;;;;;;0.40;0.40;;;13.30;62.40;;;;;;20747;6823;120953;-73
2023/01/05 07:22:22;;;;;;;0.27;0.27;;;13.10;62.10;;;;;;20770;6823;118710;-74
2023/01/05 07:24:47;;;;;;;0.20;0.20;;;12.70;62.60;;;;;;20770;6823;117224;-74
2023/01/05 07:27:13;;;;;;;0.23;0.23;;;12.40;63.10;;;;;;20775;6823;117784;-74
2023/01/05 07:29:38;;;;;;;0.10;0.10;;;12.10;63.80;;;;;;20764;6823;121727;-74
2023/01/05 07:32:04;;;;;;;0.20;0.20;;;11.90;64.30;;;;;;20533;6823;277824;-74
2023/01/05 07:34:30;;;;;;;0.27;0.27;;;12.00;66.00;;;;;;20563;6823;307573;-72
2023/01/05 07:36:55;;;;;;;0.50;0.40;;;12.30;65.60;;;;;;20563;6823;277134;-73
2023/01/05 07:39:21;;;;;;;0.40;0.40;;;12.60;65.00;;;;;;20634;6821;117351;-73
2023/01/05 07:41:46;;;;;;;0.40;0.40;;;12.50;64.50;;;;;;20744;6821;118540;-73
2023/01/05 07:44:12;;;;;;;0.43;0.43;;;12.30;65.10;;;;;;20716;6822;117540;-73
2023/01/05 07:46:38;;;;;;;0.20;0.20;;;12.10;65.60;;;;;;20726;6822;118783;-73
2023/01/05 07:49:03;;;;;;;0.60;0.30;;;11.90;66.00;;;;;;20507;6822;308653;-72
2023/01/05 07:51:29;;;;;;;0.20;0.20;;;12.00;67.10;;;;;;20490;6822;310450;-73
2023/01/05 08:04:52;;;;;;;5.87;5.47;;;13.20;63.10;;;;;;21400;6474;83847;-71
2023/01/05 08:07:18;;;;;;;2.90;2.70;;;13.00;63.10;;;;;;20682;6769;312429;-71
2023/01/05 08:29:30;;;;;;;7.27;6.57;;;11.70;67.20;;;;;;21498;6590;201719;-72
2023/01/05 08:32:01;;;;;;;4.77;4.50;;;11.50;67.50;;;;;;20610;6590;306947;-72
2023/01/05 08:34:31;;;;;;;2.40;2.30;;;11.80;68.70;;;;;;20805;6801;117536;-72
2023/01/05 08:36:55;;;;;;;2.60;2.20;;;11.90;67.70;;;;;;20537;6816;306683;-71
2023/01/05 08:39:21;;;;;;;2.05;1.73;;;12.10;68.10;;;;;;20463;6848;281691;-72
2023/01/05 08:41:48;;;;;;;1.93;1.83;;;12.50;67.10;;;;;;20445;6848;337906;-73
2023/01/05 08:44:13;;;;;;;0.83;0.83;;;12.80;66.20;;;;;;20704;6848;120274;-73
2023/01/05 08:46:39;;;;;;;2.23;2.13;;;12.80;65.80;;;;;;20688;6848;118378;-74
2023/01/05 08:49:05;;;;;;;3.33;3.12;;;12.60;66.10;;;;;;20702;6848;117510;-73
2023/01/05 08:51:30;;;;;;;4.90;4.50;;;12.40;66.70;;;;;;20680;6848;117332;-75
2023/01/05 08:53:56;;;;;;;3.37;2.08;;;12.30;67.20;;;;;;20472;6848;292096;-74
2023/01/05 08:56:23;;;;;;;2.33;2.17;;;12.40;67.30;;;;;;20701;6848;117583;-73
2023/01/05 08:58:47;;;;;;;0.97;0.80;;;12.50;66.60;;;;;;20687;6847;113866;-73
2023/01/05 09:01:13;;;;;;;2.80;2.45;;;12.40;66.50;;;;;;20496;6848;335814;-73
2023/01/05 09:03:38;;;;;;;2.42;0.60;;;12.50;64.90;;;;;;20708;6848;117548;-71
2023/01/05 09:06:04;;;;;;;1.33;1.00;;;12.50;64.60;;;;;;20475;6848;337754;-72
2023/01/05 09:08:30;;;;;;;1.43;1.00;;;13.00;63.00;;;;;;20472;6848;279416;-70
2023/01/05 09:11:16;;;;;;;2.87;0.80;;;13.00;62.90;;;;;;20678;6852;118403;-71
2023/01/05 09:13:41;;;;;;;2.73;1.00;;;13.00;62.70;;;;;;20689;6852;117127;-72
2023/01/05 09:16:10;;;;;;;4.47;1.40;;;12.80;63.10;;;;;;20422;6865;325722;-75
2023/01/05 09:18:35;;;;;;;1.83;0.90;;;12.90;62.50;;;;;;20670;6856;118057;-74
2023/01/05 09:21:01;;;;;;;2.80;1.00;;;12.90;62.30;;;;;;20670;6856;122186;-73
2023/01/05 09:23:27;;;;;;;2.10;1.10;;;12.80;62.70;;;;;;20459;6860;278888;-73
2023/01/05 09:25:52;;;;;;;1.90;1.00;;;12.90;62.10;;;;;;20437;6860;309313;-73
2023/01/05 09:28:18;;;;;;;3.95;1.30;;;13.20;61.00;;;;;;20455;6860;342309;-74
2023/01/05 09:30:43;;;;;;;3.37;1.35;;;13.50;59.90;;;;;;20672;6860;118864;-72
2023/01/05 09:33:09;;;;;;;3.37;1.70;;;13.40;59.70;;;;;;20463;6855;341763;-71
2023/01/05 09:35:34;;;;;;;1.70;1.35;;;13.40;59.30;;;;;;20688;6855;119428;-74
2023/01/05 09:38:00;;;;;;;5.05;2.20;;;13.30;59.30;;;;;;20450;6855;336760;-76
2023/01/05 09:40:26;;;;;;;3.63;1.80;;;13.30;59.20;;;;;;20687;6853;119332;-74
2023/01/05 09:42:52;;;;;;;3.35;2.10;;;13.30;59.60;;;;;;20471;6854;308474;-74
2023/01/05 09:45:18;;;;;;;2.60;1.67;;;13.30;59.50;;;;;;20698;6855;117667;-74
2023/01/05 09:47:45;;;;;;;3.87;1.80;;;13.30;59.20;;;;;;20464;6855;278532;-74
2023/01/05 09:50:19;;;;;;;5.33;1.37;;;13.30;59.20;;;;;;20660;6855;126214;-74
2023/01/05 09:52:45;;;;;;;2.23;1.20;;;13.20;59.20;;;;;;20653;6855;117853;-74
2023/01/05 09:55:16;;;;;;;3.58;1.60;;;13.00;59.80;;;;;;20471;6855;338386;-74
2023/01/05 09:57:42;;;;;;;3.57;1.80;;;13.10;59.70;;;;;;20662;6855;117357;-74
2023/01/05 10:00:08;;;;;;;54.73;38.77;;;13.00;60.30;;;;;;20659;6855;119673;-74
2023/01/05 10:02:57;;;;;;;3.90;2.47;;;13.00;60.30;;;;;;20659;6855;117590;-74
2023/01/05 10:05:23;;;;;;;4.10;2.30;;;12.90;60.70;;;;;;20682;6855;117322;-74
2023/01/05 10:07:52;;;;;;;4.45;2.12;;;12.80;61.00;;;;;;20448;6855;308730;-75
2023/01/05 10:10:41;;;;;;;3.30;1.52;;;12.90;60.60;;;;;;20459;6855;337740;-75
2023/01/05 10:13:06;;;;;;;2.75;1.60;;;13.30;59.40;;;;;;20476;6855;311891;-75
2023/01/05 10:15:39;;;;;;;4.32;2.10;;;13.70;58.00;;;;;;20464;6855;335467;-74
2023/01/05 10:18:10;;;;;;;2.93;1.90;;;14.00;57.30;;;;;;20455;6855;351861;-77
2023/01/05 10:20:42;;;;;;;4.67;1.63;;;14.20;56.90;;;;;;20685;6855;117449;-73
2023/01/05 10:23:37;;;;;;;4.00;1.80;;;14.00;57.00;;;;;;20470;6855;312140;-76
2023/01/05 10:26:08;;;;;;;3.57;1.80;;;14.00;55.90;;;;;;20682;6855;118821;-75
2023/01/05 10:28:40;;;;;;;3.97;1.57;;;13.90;57.10;;;;;;20671;6855;117658;-76
2023/01/05 10:31:25;;;;;;;4.30;1.90;;;13.60;57.00;;;;;;20467;6855;278767;-73
2023/01/05 10:33:52;;;;;;;2.40;1.20;;;13.70;56.90;;;;;;20658;6855;117396;-77
2023/01/05 10:36:27;;;;;;;3.63;1.20;;;13.70;56.90;;;;;;20665;6855;117429;-74
2023/01/05 10:39:10;;;;;;;3.80;1.43;;;13.40;57.70;;;;;;20676;6855;117635;-73
2023/01/05 10:41:33;;;;;;;3.17;1.40;;;13.40;57.60;;;;;;20648;6855;117310;-72
2023/01/05 10:44:01;;;;;;;5.10;2.17;;;13.20;57.90;;;;;;20448;6855;337451;-73
2023/01/05 10:46:27;;;;;;;2.80;1.57;;;13.40;56.90;;;;;;20677;6855;117639;-72
2023/01/05 10:48:53;;;;;;;4.25;2.00;;;13.50;57.00;;;;;;20481;6855;338198;-73
2023/01/05 10:51:18;;;;;;;4.90;1.70;;;13.60;55.60;;;;;;20489;6853;279367;-73
2023/01/05 10:53:44;;;;;;;5.87;1.87;;;13.90;54.90;;;;;;20687;6854;121087;-75
2023/01/05 10:56:23;;;;;;;4.35;2.30;;;13.90;54.80;;;;;;20483;6854;336306;-73
2023/01/05 10:58:49;;;;;;;5.73;2.20;;;14.00;53.90;;;;;;20436;6854;308455;-72
2023/01/05 11:01:26;;;;;;;4.67;1.60;;;14.30;53.00;;;;;;20626;6855;117478;-72
2023/01/05 11:03:51;;;;;;;4.77;2.03;;;14.20;53.30;;;;;;20670;6855;117312;-72
2023/01/05 11:06:21;;;;;;;7.30;2.20;;;13.90;54.00;;;;;;20476;6855;321723;-72
2023/01/05 11:08:47;;;;;;;6.77;2.30;;;14.20;52.30;;;;;;20483;6855;279291;-71
2023/01/05 11:11:24;;;;;;;5.60;2.20;;;14.20;52.30;;;;;;20488;6855;308457;-72
2023/01/05 11:13:53;;;;;;;4.30;2.07;;;14.50;51.60;;;;;;20675;6855;118805;-71
2023/01/05 11:16:20;;;;;;;10.83;2.20;;;14.40;52.20;;;;;;20680;6855;121596;-72
2023/01/05 11:19:01;;;;;;;5.15;2.10;;;14.10;52.80;;;;;;20477;6855;308360;-70
2023/01/05 11:21:44;;;;;;;4.63;1.80;;;14.20;51.50;;;;;;20693;6855;117287;-72
2023/01/05 11:24:23;;;;;;;4.10;1.73;;;14.10;51.90;;;;;;20685;6855;118416;-72
2023/01/05 11:26:51;;;;;;;5.50;2.30;;;13.80;52.30;;;;;;20492;6855;278840;-72
2023/01/05 11:29:17;;;;;;;6.17;2.40;;;13.90;51.60;;;;;;20455;6855;309008;-73
2023/01/05 11:31:49;;;;;;;7.13;2.47;;;14.20;50.00;;;;;;20485;6855;278139;-72
2023/01/05 11:34:27;;;;;;;5.57;2.00;;;14.50;49.70;;;;;;20053;6855;119440;-72
2023/01/05 11:36:59;;;;;;;5.85;2.67;;;14.40;50.30;;;;;;20468;6855;309254;-72
2023/01/05 11:39:25;;;;;;;6.03;2.47;;;14.60;49.10;;;;;;20477;6855;287002;-73
2023/01/05 11:41:51;;;;;;;7.68;2.87;;;14.60;49.10;;;;;;20464;6855;286584;-74
2023/01/05 11:44:20;;;;;;;5.37;2.47;;;14.80;49.00;;;;;;20471;6855;308593;-73
2023/01/05 11:46:47;;;;;;;5.37;1.90;;;14.90;48.90;;;;;;20685;6855;117248;-73
2023/01/05 11:49:12;;;;;;;6.82;2.58;;;14.70;49.40;;;;;;20477;6855;278904;-73
2023/01/05 11:51:38;;;;;;;8.13;2.70;;;14.60;48.80;;;;;;20453;6855;308644;-73
2023/01/05 11:54:04;;;;;;;6.57;2.87;;;14.80;48.60;;;;;;20457;6855;308664;-72
2023/01/05 11:56:29;;;;;;;7.63;2.50;;;14.90;48.20;;;;;;20685;6855;119224;-70
2023/01/05 11:58:56;;;;;;;7.13;2.40;;;14.70;48.70;;;;;;20683;6855;117255;-73
2023/01/05 12:01:28;;;;;;;7.47;2.78;;;14.40;49.60;;;;;;20473;6853;308410;-72
2023/01/05 12:04:34;;;;;;;9.23;2.80;;;14.30;49.50;;;;;;20439;6854;278680;-75
2023/01/05 12:07:05;;;;;;;5.37;2.43;;;14.60;49.40;;;;;;20687;6854;117447;-74
2023/01/05 12:09:30;;;;;;;6.67;2.37;;;14.40;49.90;;;;;;20687;6854;118759;-74
2023/01/05 12:11:59;;;;;;;7.55;2.67;;;14.10;50.50;;;;;;20454;6854;282421;-74
2023/01/05 12:14:35;;;;;;;5.70;2.40;;;14.20;49.90;;;;;;20668;6855;118917;-72
2023/01/05 12:17:00;;;;;;;7.13;2.83;;;14.10;50.20;;;;;;20655;6855;117568;-71
2023/01/05 12:19:46;;;;;;;6.37;2.20;;;13.70;51.00;;;;;;20666;6855;118392;-71
2023/01/05 12:22:12;;;;;;;6.05;2.53;;;13.70;51.00;;;;;;20472;6855;338649;-71
2023/01/05 12:24:51;;;;;;;9.40;2.03;;;14.00;50.70;;;;;;20692;6855;120080;-71
2023/01/05 12:27:29;;;;;;;6.28;3.15;;;14.00;50.70;;;;;;19836;6855;312329;-72
2023/01/05 12:30:09;;;;;;;7.07;2.70;;;14.10;49.50;;;;;;20467;6855;282615;-71
2023/01/05 12:32:35;;;;;;;7.28;2.72;;;14.40;48.60;;;;;;20466;6855;338130;-72
2023/01/05 12:35:41;;;;;;;6.57;2.72;;;14.60;48.40;;;;;;20472;6855;279087;-72
2023/01/05 12:38:26;;;;;;;6.60;2.43;;;14.80;48.40;;;;;;20665;6855;118868;-71
2023/01/05 12:41:04;;;;;;;4.60;2.33;;;14.50;49.00;;;;;;20686;6855;118106;-71
2023/01/05 12:44:10;;;;;;;6.07;2.23;;;14.10;49.70;;;;;;20598;6855;117231;-70
2023/01/05 12:46:46;;;;;;;7.90;2.83;;;14.00;50.00;;;;;;20428;6855;294003;-71
2023/01/05 12:49:11;;;;;;;6.85;2.75;;;14.00;50.00;;;;;;20436;6855;278361;-71
2023/01/05 12:51:44;;;;;;;5.80;2.50;;;14.30;49.60;;;;;;20620;6855;117730;-71
2023/01/05 12:54:26;;;;;;;6.90;3.23;;;14.20;49.90;;;;;;20418;6855;308630;-71
2023/01/05 12:56:54;;;;;;;8.00;2.33;;;14.30;50.00;;;;;;20682;6855;119820;-71
2023/01/05 12:59:20;;;;;;;3.63;2.00;;;14.10;50.20;;;;;;20675;6855;117305;-73
2023/01/05 13:02:16;;;;;;;6.60;2.40;;;13.90;50.80;;;;;;20648;6855;118410;-73
2023/01/05 13:04:44;;;;;;;7.37;2.47;;;13.70;51.30;;;;;;20459;6855;338208;-73
2023/01/05 13:07:10;;;;;;;7.10;2.77;;;14.00;51.00;;;;;;20448;6855;279037;-72
2023/01/05 13:09:35;;;;;;;6.10;2.50;;;14.30;50.80;;;;;;20664;6855;120185;-71
2023/01/05 13:12:05;;;;;;;4.43;2.23;;;14.30;50.90;;;;;;20452;6855;308615;-71
2023/01/05 13:14:30;;;;;;;5.80;2.10;;;14.40;50.20;;;;;;20670;6853;118948;-71
2023/01/05 13:17:19;;;;;;;5.30;2.00;;;14.30;50.60;;;;;;20669;6854;117166;-71
2023/01/05 13:19:48;;;;;;;5.53;2.23;;;14.00;51.00;;;;;;20467;6854;310541;-71
2023/01/05 13:22:13;;;;;;;4.80;2.30;;;14.10;50.60;;;;;;20669;6854;117541;-73
2023/01/05 13:24:39;;;;;;;5.73;1.70;;;14.10;50.90;;;;;;20666;6855;117575;-71
2023/01/05 13:27:04;;;;;;;4.20;2.13;;;13.90;51.40;;;;;;20654;6855;117275;-71
2023/01/05 13:29:30;;;;;;;8.33;2.43;;;13.70;51.80;;;;;;20411;6855;300546;-71
2023/01/05 13:32:06;;;;;;;10.18;3.85;;;13.80;51.70;;;;;;20352;6855;309577;-71
2023/01/05 13:34:58;;;;;;;7.17;2.67;;;14.20;51.10;;;;;;20600;6855;117243;-69
2023/01/05 13:37:44;;;;;;;6.27;2.50;;;13.90;51.60;;;;;;19583;7198;121356;-69
2023/01/05 13:40:30;;;;;;;3.17;1.80;;;13.90;51.60;;;;;;19758;6853;121369;-71
2023/01/05 13:43:02;;;;;;;6.10;2.20;;;13.70;52.10;;;;;;20600;6867;119353;-71